createdAt,value
2022-09-05T00:00:20.238Z,2.40
2022-09-05T00:03:54.890Z,2.40
2022-09-05T00:06:46.402Z,2.60
2022-09-05T00:09:51.740Z,3.10
2022-09-05T00:12:39.065Z,2.50
2022-09-05T00:16:06.495Z,1.90
2022-09-05T00:23:31.950Z,2.80
2022-09-05T00:24:29.056Z,2.20
2022-09-05T00:26:50.155Z,2.30
2022-09-05T00:31:07.421Z,2.20
2022-09-05T00:33:29.048Z,2.50
2022-09-05T00:36:47.446Z,2.10
2022-09-05T00:39:39.700Z,2.30
2022-09-05T00:42:26.662Z,2.70
2022-09-05T00:45:25.973Z,2.50
2022-09-05T00:48:23.227Z,2.20
2022-09-05T00:51:35.004Z,2.20
2022-09-05T00:54:34.230Z,2.70
2022-09-05T00:57:52.381Z,2.30
2022-09-05T01:00:55.936Z,1.90
2022-09-05T01:04:07.628Z,2.40
2022-09-05T01:07:13.592Z,2.30
2022-09-05T01:10:28.289Z,2.00
2022-09-05T01:13:42.448Z,2.20
2022-09-05T01:16:42.452Z,2.10
2022-09-05T01:19:52.193Z,2.10
2022-09-05T01:23:16.388Z,2.90
2022-09-05T01:26:37.707Z,2.20
2022-09-05T01:29:47.671Z,2.00
2022-09-05T01:33:41.051Z,1.70
2022-09-05T01:37:05.638Z,1.40
2022-09-05T01:40:29.034Z,1.80
2022-09-05T01:43:40.400Z,1.50
2022-09-05T01:47:05.995Z,1.50
2022-09-05T01:50:22.314Z,1.60
2022-09-05T01:53:40.146Z,1.60
2022-09-05T01:56:35.041Z,1.30
2022-09-05T02:00:22.486Z,1.40
2022-09-05T02:03:42.816Z,1.30
2022-09-05T02:06:44.128Z,1.30
2022-09-05T02:10:22.961Z,1.50
2022-09-05T02:13:36.603Z,1.30
2022-09-05T02:16:39.897Z,1.10
2022-09-05T02:19:30.672Z,1.10
2022-09-05T02:22:29.077Z,1.10
2022-09-05T02:26:01.963Z,1.20
2022-09-05T02:28:43.656Z,1.10
2022-09-05T02:31:36.640Z,1.20
2022-09-05T02:35:06.123Z,1.20
2022-09-05T02:39:38.260Z,0.90
2022-09-05T02:45:13.410Z,1.10
2022-09-05T02:45:25.666Z,1.00
2022-09-05T02:50:06.993Z,1.00
2022-09-05T02:57:25.098Z,0.90
2022-09-05T02:57:41.591Z,0.80
2022-09-05T02:59:58.099Z,0.90
2022-09-05T03:03:27.938Z,1.10
2022-09-05T03:06:45.041Z,1.10
2022-09-05T03:09:41.172Z,0.70
2022-09-05T03:13:05.468Z,1.10
2022-09-05T03:16:36.593Z,0.90
2022-09-05T03:19:55.512Z,1.10
2022-09-05T03:23:01.950Z,1.00
2022-09-05T03:26:30.019Z,0.80
2022-09-05T03:29:37.315Z,0.80
2022-09-05T03:32:42.313Z,0.90
2022-09-05T03:36:10.227Z,0.70
2022-09-05T03:39:33.436Z,0.70
2022-09-05T03:42:37.009Z,0.80
2022-09-05T03:45:59.265Z,0.90
2022-09-05T03:48:53.011Z,0.70
2022-09-05T03:57:10.412Z,0.90
2022-09-05T03:57:15.840Z,0.90
2022-09-05T04:00:10.538Z,0.80
2022-09-05T04:08:09.002Z,0.80
2022-09-05T04:08:24.253Z,1.00
2022-09-05T04:10:08.320Z,0.90
2022-09-05T04:13:06.822Z,0.80
2022-09-05T04:16:18.417Z,0.80
2022-09-05T04:19:29.557Z,0.80
2022-09-05T04:22:59.888Z,0.70
2022-09-05T04:26:12.403Z,0.80
2022-09-05T04:29:24.842Z,0.70
2022-09-05T04:32:55.754Z,0.80
2022-09-05T04:35:54.038Z,0.50
2022-09-05T04:38:45.208Z,0.70
2022-09-05T04:41:39.313Z,0.60
2022-09-05T04:44:49.558Z,0.80
2022-09-05T04:47:43.681Z,0.50
2022-09-05T04:50:38.097Z,1.00
2022-09-05T04:53:46.986Z,0.80
2022-09-05T04:56:40.076Z,0.50
2022-09-05T05:03:26.142Z,0.60
2022-09-05T05:06:16.674Z,0.80
2022-09-05T05:09:32.044Z,0.80
2022-09-05T05:18:00.014Z,1.10
2022-09-05T05:18:10.726Z,0.60
2022-09-05T05:19:26.564Z,0.90
2022-09-05T05:22:17.130Z,0.60
2022-09-05T05:25:04.574Z,0.50
2022-09-05T05:28:24.811Z,0.60
2022-09-05T05:31:21.286Z,0.50
2022-09-05T05:34:47.078Z,0.50
2022-09-05T05:37:51.926Z,0.70
2022-09-05T05:40:50.781Z,0.60
2022-09-05T05:43:45.496Z,0.40
2022-09-05T05:46:37.730Z,0.50
2022-09-05T05:49:50.533Z,0.70
2022-09-05T05:53:33.486Z,0.70
2022-09-05T05:56:57.898Z,0.60
2022-09-05T06:00:14.792Z,0.50
2022-09-05T06:03:46.909Z,0.60
2022-09-05T06:06:55.365Z,0.60
2022-09-05T06:14:51.107Z,0.50
2022-09-05T06:15:01.626Z,0.60
2022-09-05T06:17:49.817Z,0.70
2022-09-05T06:22:10.819Z,0.70
2022-09-05T06:24:44.018Z,0.50
2022-09-05T06:28:17.392Z,0.60
2022-09-05T06:31:31.942Z,0.40
2022-09-05T06:34:42.585Z,0.60
2022-09-05T06:38:03.298Z,0.50
2022-09-05T06:41:15.765Z,0.50
2022-09-05T06:44:37.904Z,0.50
2022-09-05T06:47:33.884Z,0.40
2022-09-05T06:50:26.667Z,0.40
2022-09-05T06:53:31.484Z,0.40
2022-09-05T06:56:26.287Z,0.50
2022-09-05T06:59:49.687Z,0.60
2022-09-05T07:02:59.993Z,0.40
2022-09-05T07:06:07.825Z,0.50
2022-09-05T07:09:28.635Z,0.50
2022-09-05T07:12:35.431Z,1.10
2022-09-05T07:16:08.215Z,0.70
2022-09-05T07:19:05.170Z,0.60
2022-09-05T07:22:47.599Z,0.60
2022-09-05T07:25:37.483Z,0.50
2022-09-05T07:28:27.102Z,0.60
2022-09-05T07:31:37.140Z,0.70
2022-09-05T07:34:35.086Z,0.80
2022-09-05T07:37:23.880Z,0.90
2022-09-05T07:40:27.310Z,0.60
2022-09-05T07:43:40.074Z,0.60
2022-09-05T07:46:33.364Z,0.70
2022-09-05T07:49:21.270Z,0.50
2022-09-05T07:56:53.979Z,0.50
2022-09-05T07:57:05.031Z,0.80
2022-09-05T07:58:50.291Z,0.40
2022-09-05T08:01:46.795Z,0.60
2022-09-05T08:04:39.761Z,0.50
2022-09-05T08:07:50.081Z,0.70
2022-09-05T08:11:23.245Z,0.50
2022-09-05T08:14:27.029Z,0.40
2022-09-05T08:17:11.489Z,0.50
2022-09-05T08:20:24.516Z,0.70
2022-09-05T08:23:39.928Z,0.70
2022-09-05T08:26:46.358Z,0.40
2022-09-05T08:30:25.994Z,0.40
2022-09-05T08:33:28.903Z,0.40
2022-09-05T08:36:59.765Z,0.50
2022-09-05T08:39:47.221Z,0.50
2022-09-05T08:46:18.584Z,0.40
2022-09-05T08:46:48.580Z,0.40
2022-09-05T08:49:50.394Z,0.50
2022-09-05T08:53:45.472Z,0.60
2022-09-05T08:56:58.881Z,0.50
2022-09-05T09:00:19.754Z,0.50
2022-09-05T09:03:36.036Z,0.60
2022-09-05T09:07:19.897Z,0.40
2022-09-05T09:10:50.875Z,0.80
2022-09-05T09:13:55.114Z,0.60
2022-09-05T09:17:30.847Z,0.60
2022-09-05T09:20:47.253Z,0.70
2022-09-05T09:23:50.045Z,0.50
2022-09-05T09:27:02.316Z,0.70
2022-09-05T09:29:49.166Z,0.60
2022-09-05T09:32:46.860Z,0.80
2022-09-05T09:35:58.098Z,0.60
2022-09-05T09:39:38.136Z,0.80
2022-09-05T09:42:58.247Z,1.10
2022-09-05T09:46:07.932Z,0.60
2022-09-05T09:49:22.988Z,0.50
2022-09-05T09:52:37.699Z,1.00
2022-09-05T09:55:55.682Z,0.70
2022-09-05T09:59:10.138Z,0.60
2022-09-05T10:04:55.561Z,0.60
2022-09-05T10:10:51.891Z,0.50
2022-09-05T10:10:55.124Z,0.60
2022-09-05T10:13:09.187Z,0.60
2022-09-05T10:16:09.217Z,0.50
2022-09-05T10:20:10.859Z,0.50
2022-09-05T10:23:24.949Z,0.50
2022-09-05T10:26:24.661Z,0.60
2022-09-05T10:29:45.051Z,0.50
2022-09-05T10:35:15.397Z,0.40
2022-09-05T10:36:23.227Z,0.60
2022-09-05T10:39:21.126Z,0.60
2022-09-05T10:42:34.173Z,0.50
2022-09-05T10:45:56.672Z,0.60
2022-09-05T10:49:02.645Z,0.50
2022-09-05T10:52:18.912Z,0.50
2022-09-05T10:55:26.595Z,0.60
2022-09-05T10:59:26.046Z,1.30
2022-09-05T11:02:27.453Z,0.50
2022-09-05T11:05:26.887Z,0.40
2022-09-05T11:08:22.790Z,0.50
2022-09-05T11:11:28.624Z,0.30
2022-09-05T11:14:54.375Z,0.40
2022-09-05T11:17:45.537Z,0.40
2022-09-05T11:20:49.687Z,0.40
2022-09-05T11:23:47.564Z,0.50
2022-09-05T11:27:25.638Z,0.40
2022-09-05T11:30:38.870Z,0.80
2022-09-05T11:39:48.798Z,0.50
2022-09-05T11:39:59.337Z,0.40
2022-09-05T11:40:51.187Z,0.40
2022-09-05T11:44:24.825Z,0.50
2022-09-05T11:48:18.143Z,0.50
2022-09-05T11:51:51.747Z,0.60
2022-09-05T11:55:21.468Z,1.60
2022-09-05T11:58:44.809Z,0.40
2022-09-05T12:02:23.157Z,2.00
2022-09-05T12:06:09.745Z,0.30
2022-09-05T12:09:40.402Z,0.30
2022-09-05T12:12:41.341Z,0.30
2022-09-05T12:15:34.918Z,0.40
2022-09-05T12:19:19.588Z,0.40
2022-09-05T12:22:40.277Z,0.60
2022-09-05T12:27:40.545Z,0.50
2022-09-05T12:29:29.306Z,0.40
2022-09-05T12:33:39.379Z,1.20
2022-09-05T12:36:12.350Z,0.30
2022-09-05T12:40:58.198Z,0.30
2022-09-05T12:44:00.770Z,0.50
2022-09-05T12:46:26.841Z,0.40
2022-09-05T12:49:38.372Z,0.30
2022-09-05T12:52:40.078Z,1.30
2022-09-05T12:55:34.057Z,0.40
2022-09-05T13:03:02.904Z,0.30
2022-09-05T13:03:12.650Z,0.40
2022-09-05T13:05:02.834Z,0.40
2022-09-05T13:08:02.607Z,0.30
2022-09-05T13:14:47.524Z,5.40
2022-09-05T13:14:58.635Z,0.70
2022-09-05T13:17:21.397Z,0.30
2022-09-05T13:20:51.936Z,0.40
2022-09-05T13:24:06.923Z,0.40
2022-09-05T13:26:58.182Z,0.40
2022-09-05T13:30:23.842Z,0.50
2022-09-05T13:37:59.739Z,0.30
2022-09-05T13:38:17.484Z,0.50
2022-09-05T13:40:23.496Z,0.60
2022-09-05T13:43:11.854Z,0.40
2022-09-05T13:46:18.483Z,0.60
2022-09-05T13:49:31.018Z,0.40
2022-09-05T13:52:28.610Z,0.50
2022-09-05T13:55:41.255Z,0.40
2022-09-05T13:58:56.805Z,0.50
2022-09-05T14:02:24.784Z,0.70
2022-09-05T14:06:30.767Z,2.20
2022-09-05T14:10:08.008Z,2.00
2022-09-05T14:13:04.692Z,0.60
2022-09-05T14:16:02.219Z,0.60
2022-09-05T14:19:08.100Z,0.40
2022-09-05T14:21:54.513Z,0.50
2022-09-05T14:24:45.047Z,0.40
2022-09-05T14:27:35.597Z,0.30
2022-09-05T14:33:32.489Z,0.40
2022-09-05T14:37:49.607Z,0.50
2022-09-05T14:38:09.637Z,0.30
2022-09-05T14:41:15.038Z,1.00
2022-09-05T14:43:47.891Z,1.30
2022-09-05T14:47:35.544Z,0.80
2022-09-05T14:50:36.694Z,0.50
2022-09-05T14:57:16.494Z,0.40
2022-09-05T15:02:40.962Z,0.50
2022-09-05T15:03:00.308Z,0.30
2022-09-05T15:05:36.761Z,0.40
2022-09-05T15:10:35.147Z,0.40
2022-09-05T15:12:24.272Z,0.30
2022-09-05T15:14:07.296Z,0.30
2022-09-05T15:16:40.752Z,0.30
2022-09-05T15:19:10.934Z,0.40
2022-09-05T15:21:41.687Z,0.30
2022-09-05T15:24:31.581Z,0.30
2022-09-05T15:27:02.438Z,0.30
2022-09-05T15:29:35.618Z,0.40
2022-09-05T15:32:24.062Z,0.30
2022-09-05T15:34:59.616Z,0.30
2022-09-05T15:37:39.129Z,0.30
2022-09-05T15:40:22.873Z,0.30
2022-09-05T15:43:02.462Z,0.40
2022-09-05T15:45:35.860Z,0.40
2022-09-05T15:48:09.318Z,0.30
2022-09-05T15:50:50.714Z,0.40
2022-09-05T15:53:34.857Z,0.30
2022-09-05T15:56:19.301Z,0.40
2022-09-05T15:58:56.433Z,0.20
2022-09-05T16:01:59.948Z,0.20
2022-09-05T16:08:39.761Z,0.30
2022-09-05T16:10:35.962Z,0.30
2022-09-05T16:10:57.966Z,0.30
2022-09-05T16:13:36.754Z,0.30
2022-09-05T16:21:05.300Z,0.30
2022-09-05T16:23:29.339Z,0.30
2022-09-05T16:23:33.125Z,0.30
2022-09-05T16:25:17.408Z,0.40
2022-09-05T16:28:11.951Z,0.30
2022-09-05T16:30:41.764Z,0.40
2022-09-05T16:33:26.476Z,0.30
2022-09-05T16:36:04.254Z,0.40
2022-09-05T16:38:57.383Z,0.30
2022-09-05T16:41:56.310Z,0.40
2022-09-05T16:44:47.178Z,0.40
2022-09-05T16:47:36.434Z,0.50
2022-09-05T16:50:30.096Z,0.50
2022-09-05T16:53:34.690Z,0.60
2022-09-05T16:56:13.055Z,0.70
2022-09-05T16:58:50.922Z,0.60
2022-09-05T17:01:49.333Z,0.60
2022-09-05T17:05:04.483Z,0.40
2022-09-05T17:07:49.192Z,0.50
2022-09-05T17:10:21.249Z,1.20
2022-09-05T17:12:54.886Z,1.80
2022-09-05T17:15:33.110Z,0.50
2022-09-05T17:18:24.284Z,0.40
2022-09-05T17:20:57.246Z,0.30
2022-09-05T17:28:58.368Z,0.70
2022-09-05T17:29:32.749Z,0.80
2022-09-05T17:32:50.049Z,1.40
2022-09-05T17:35:44.449Z,2.20
2022-09-05T17:38:54.116Z,2.10
2022-09-05T17:41:43.904Z,2.90
2022-09-05T17:44:25.507Z,3.10
2022-09-05T17:47:19.139Z,3.00
2022-09-05T17:50:39.020Z,3.60
2022-09-05T17:53:25.860Z,3.20
2022-09-05T17:55:57.137Z,3.70
2022-09-05T17:58:49.854Z,3.70
2022-09-05T18:01:26.922Z,3.20
2022-09-05T18:04:08.479Z,3.20
2022-09-05T18:07:00.029Z,3.10
2022-09-05T18:13:13.419Z,2.10
2022-09-05T18:15:43.963Z,2.20
2022-09-05T18:21:26.300Z,2.10
2022-09-05T18:24:43.943Z,2.10
2022-09-05T18:28:04.800Z,1.80
2022-09-05T18:33:55.395Z,2.50
2022-09-05T18:36:25.467Z,2.70
2022-09-05T18:39:24.978Z,1.60
2022-09-05T18:42:07.088Z,1.70
2022-09-05T18:45:17.374Z,1.50
2022-09-05T18:47:59.205Z,1.80
2022-09-05T18:50:36.971Z,2.60
2022-09-05T18:53:25.281Z,1.60
2022-09-05T18:56:21.933Z,1.60
2022-09-05T18:59:27.913Z,1.60
2022-09-05T19:02:24.989Z,1.50
2022-09-05T19:05:13.526Z,1.20
2022-09-05T19:07:48.559Z,1.10
2022-09-05T19:10:34.821Z,1.30
2022-09-05T19:13:20.264Z,1.90
2022-09-05T19:16:42.801Z,1.60
2022-09-05T19:19:28.462Z,1.40
2022-09-05T19:22:39.596Z,1.50
2022-09-05T19:24:53.073Z,1.40
2022-09-05T19:29:56.293Z,1.10
2022-09-05T19:36:44.025Z,1.20
2022-09-05T19:37:02.639Z,1.10
2022-09-05T19:37:22.217Z,1.20
2022-09-05T19:46:08.854Z,1.20
2022-09-05T19:47:41.362Z,1.10
2022-09-05T19:47:50.193Z,1.00
2022-09-05T19:48:27.968Z,1.10
2022-09-05T19:51:16.228Z,1.20
2022-09-05T19:54:04.779Z,1.50
2022-09-05T19:56:44.993Z,1.90
2022-09-05T19:59:24.914Z,1.40
2022-09-05T20:02:02.438Z,1.60
2022-09-05T20:04:47.324Z,1.40
2022-09-05T20:07:27.856Z,1.40
2022-09-05T20:09:58.916Z,1.60
2022-09-05T20:12:39.898Z,1.60
2022-09-05T20:15:36.023Z,1.40
2022-09-05T20:18:24.510Z,1.50
2022-09-05T20:21:15.415Z,1.70
2022-09-05T20:23:56.537Z,2.00
2022-09-05T20:26:30.816Z,1.50
2022-09-05T20:29:02.577Z,1.70
2022-09-05T20:31:33.934Z,1.70
2022-09-05T20:34:16.499Z,1.50
2022-09-05T20:43:15.781Z,1.80
2022-09-05T20:43:22.842Z,1.70
2022-09-05T20:43:30.696Z,1.40
2022-09-05T20:47:30.104Z,1.40
2022-09-05T20:54:06.557Z,1.30
2022-09-05T20:54:23.018Z,1.50
2022-09-05T20:54:35.012Z,1.40
2022-09-05T20:57:23.379Z,1.30
2022-09-05T20:59:52.892Z,1.50
2022-09-05T21:02:23.874Z,1.90
2022-09-05T21:05:10.116Z,1.80
2022-09-05T21:08:07.161Z,1.50
2022-09-05T21:10:56.004Z,1.60
2022-09-05T21:13:52.488Z,1.40
2022-09-05T21:16:28.434Z,1.80
2022-09-05T21:18:58.350Z,1.80
2022-09-05T21:21:32.030Z,1.90
2022-09-05T21:24:18.172Z,1.50
2022-09-05T21:26:56.539Z,2.00
2022-09-05T21:29:58.833Z,2.10
2022-09-05T21:32:43.991Z,2.40
2022-09-05T21:35:35.088Z,2.20
2022-09-05T21:38:05.329Z,2.50
2022-09-05T21:40:35.142Z,2.30
2022-09-05T21:47:33.453Z,2.80
2022-09-05T21:47:41.436Z,2.80
2022-09-05T21:48:47.447Z,3.00
2022-09-05T21:51:25.702Z,3.10
2022-09-05T21:59:17.706Z,3.10
2022-09-05T21:59:29.609Z,3.40
2022-09-05T21:59:47.514Z,2.80
2022-09-05T22:02:18.138Z,3.20
2022-09-05T22:04:48.151Z,3.20
2022-09-05T22:07:31.785Z,3.30
2022-09-05T22:10:07.305Z,3.50
2022-09-05T22:12:39.539Z,3.70
2022-09-05T22:15:28.374Z,3.20
2022-09-05T22:18:17.049Z,3.20
2022-09-05T22:21:31.572Z,2.90
2022-09-05T22:23:47.363Z,2.90
2022-09-05T22:26:36.581Z,2.30
2022-09-05T22:29:17.041Z,2.20
2022-09-05T22:31:46.381Z,2.10
2022-09-05T22:34:15.581Z,2.10
2022-09-05T22:36:45.222Z,2.30
2022-09-05T22:39:14.261Z,2.90
2022-09-05T22:41:56.871Z,2.40
2022-09-05T22:44:25.951Z,2.70
2022-09-05T22:46:55.677Z,2.20
2022-09-05T22:49:24.751Z,2.80
2022-09-05T22:51:54.781Z,3.10
2022-09-05T22:54:24.581Z,2.90
2022-09-05T22:56:53.681Z,3.00
2022-09-05T22:59:24.203Z,3.10
2022-09-05T23:01:54.026Z,3.60
2022-09-05T23:04:24.175Z,4.20
2022-09-05T23:06:53.513Z,3.50
2022-09-05T23:09:23.352Z,3.60
2022-09-05T23:11:52.860Z,3.80
2022-09-05T23:14:21.852Z,3.30
2022-09-05T23:16:51.461Z,3.60
2022-09-05T23:19:22.300Z,3.00
2022-09-05T23:21:51.862Z,3.10
2022-09-05T23:24:21.200Z,3.30
2022-09-05T23:26:50.404Z,3.40
2022-09-05T23:29:20.140Z,3.50
2022-09-05T23:31:49.422Z,3.10
2022-09-05T23:34:19.420Z,3.00
2022-09-05T23:36:48.812Z,3.50
2022-09-05T23:39:18.542Z,3.20
2022-09-05T23:41:48.061Z,2.80
2022-09-05T23:44:17.450Z,3.40
2022-09-05T23:46:47.831Z,3.60
2022-09-05T23:49:18.302Z,3.30
2022-09-05T23:51:47.740Z,2.80
2022-09-05T23:54:17.291Z,3.40
2022-09-05T23:56:46.302Z,3.40
2022-09-05T23:59:15.602Z,2.90
